Time;durP1;ratioP1;P1;durP2;ratioP2;P2;SDS_P1;SDS_P2;PMS_P1;PMS_P2;Temp;Humidity;BMP_temperature;BMP_pressure;BME280_temperature;BME280_humidity;BME280_pressure;Samples;Min_cycle;Max_cycle;Signal;HPM_P1;HPM_P2
2021/11/12 00:02:33;;;;;;;890.85;470.42;;;;;;;;;;5094487;28;20101;-71
2021/11/12 00:13:19;;;;;;;894.40;445.98;;;;;;;;;;5094311;28;20034;-71
2021/11/12 00:15:51;;;;;;;911.35;447.13;;;;;;;;;;5092984;28;20118;-70
2021/11/12 00:18:18;;;;;;;930.85;476.98;;;;;;;;;;5093073;28;20016;-71
2021/11/12 00:20:45;;;;;;;927.00;451.38;;;;;;;;;;5093715;28;20472;-70
2021/11/12 00:23:12;;;;;;;928.00;469.83;;;;;;;;;;5094199;28;20024;-71
2021/11/12 00:25:39;;;;;;;921.03;450.77;;;;;;;;;;5093844;28;20028;-71
2021/11/12 00:28:05;;;;;;;918.40;467.90;;;;;;;;;;5094019;28;20046;-70
2021/11/12 00:33:11;;;;;;;921.03;455.95;;;;;;;;;;5093851;28;20028;-70
2021/11/12 00:38:07;;;;;;;923.13;452.50;;;;;;;;;;5094244;28;20475;-71
2021/11/12 00:43:38;;;;;;;915.67;436.40;;;;;;;;;;5051593;28;20075;-70
2021/11/12 00:46:52;;;;;;;912.42;424.63;;;;;;;;;;5085550;28;20028;-70
2021/11/12 00:51:22;;;;;;;907.47;450.45;;;;;;;;;;5093681;28;20071;-70
2021/11/12 00:54:09;;;;;;;904.30;430.05;;;;;;;;;;5093310;28;20476;-70
2021/11/12 00:56:35;;;;;;;910.00;441.90;;;;;;;;;;5092749;28;20043;-70
2021/11/12 00:59:02;;;;;;;923.22;429.73;;;;;;;;;;5093134;28;20012;-70
2021/11/12 01:01:30;;;;;;;917.97;447.58;;;;;;;;;;5093188;28;20045;-70
2021/11/12 01:03:56;;;;;;;919.35;445.05;;;;;;;;;;5093706;28;20028;-70
2021/11/12 01:06:23;;;;;;;905.75;442.95;;;;;;;;;;5092246;28;20016;-70
2021/11/12 01:08:50;;;;;;;880.42;425.63;;;;;;;;;;5091851;28;20116;-69
2021/11/12 01:11:18;;;;;;;924.28;452.25;;;;;;;;;;5093227;28;20129;-70
2021/11/12 01:13:45;;;;;;;931.50;443.85;;;;;;;;;;5093298;28;20498;-71
2021/11/12 01:16:12;;;;;;;922.33;450.73;;;;;;;;;;5093382;28;20069;-70
2021/11/12 01:18:39;;;;;;;925.70;444.02;;;;;;;;;;5092175;28;20020;-70
2021/11/12 01:21:08;;;;;;;906.97;420.73;;;;;;;;;;5093060;28;20052;-70
2021/11/12 01:23:35;;;;;;;900.42;424.70;;;;;;;;;;5093347;28;20024;-70
2021/11/12 01:26:01;;;;;;;887.55;445.80;;;;;;;;;;5093463;28;20031;-71
2021/11/12 01:28:28;;;;;;;868.95;425.55;;;;;;;;;;5093078;28;20070;-71
2021/11/12 01:30:54;;;;;;;852.00;454.40;;;;;;;;;;5093379;28;20036;-70
2021/11/12 01:33:21;;;;;;;834.87;457.83;;;;;;;;;;5096636;28;20456;-70
2021/11/12 01:35:47;;;;;;;818.23;432.00;;;;;;;;;;5097026;28;20105;-70
2021/11/12 01:38:15;;;;;;;820.00;430.10;;;;;;;;;;5097319;28;20042;-70
2021/11/12 01:40:41;;;;;;;867.83;428.43;;;;;;;;;;5097506;28;20016;-70
2021/11/12 01:43:37;;;;;;;848.73;425.60;;;;;;;;;;5096885;28;20361;-70
2021/11/12 01:46:07;;;;;;;849.73;451.47;;;;;;;;;;5096709;28;20028;-70
2021/11/12 01:48:47;;;;;;;808.13;443.23;;;;;;;;;;5097211;28;20468;-71
2021/11/12 01:53:43;;;;;;;706.77;420.93;;;;;;;;;;5097016;28;20020;-70
2021/11/12 02:01:25;;;;;;;641.23;391.73;;;;;;;;;;5097198;28;20078;-71
2021/11/12 02:03:53;;;;;;;652.53;396.83;;;;;;;;;;5096655;28;20022;-71
2021/11/12 02:06:21;;;;;;;640.33;406.17;;;;;;;;;;5097045;28;20046;-70
2021/11/12 02:08:47;;;;;;;612.70;364.83;;;;;;;;;;5096677;28;20024;-70
2021/11/12 02:11:14;;;;;;;595.40;360.10;;;;;;;;;;5096045;28;20056;-71
2021/11/12 02:13:42;;;;;;;578.70;330.57;;;;;;;;;;5096619;28;20016;-71
2021/11/12 02:16:12;;;;;;;555.33;345.07;;;;;;;;;;5095213;28;20032;-70
2021/11/12 02:18:41;;;;;;;534.33;332.43;;;;;;;;;;5094923;28;20153;-71
2021/11/12 02:23:57;;;;;;;568.07;300.73;;;;;;;;;;5096477;28;20384;-70
2021/11/12 02:26:25;;;;;;;560.87;288.43;;;;;;;;;;5095137;28;20118;-71
2021/11/12 02:28:54;;;;;;;544.38;285.77;;;;;;;;;;5096320;28;20035;-71
2021/11/12 02:31:21;;;;;;;568.63;299.88;;;;;;;;;;5095886;28;20032;-70
2021/11/12 02:33:47;;;;;;;530.07;308.87;;;;;;;;;;5096382;28;20086;-71
2021/11/12 02:36:17;;;;;;;535.87;291.73;;;;;;;;;;5096144;28;20032;-70
2021/11/12 02:38:45;;;;;;;527.28;299.85;;;;;;;;;;5095760;28;20024;-71
2021/11/12 02:41:11;;;;;;;567.60;298.83;;;;;;;;;;5096046;28;20028;-71
2021/11/12 02:43:39;;;;;;;655.30;298.57;;;;;;;;;;5094290;28;20031;-70
2021/11/12 02:46:06;;;;;;;805.23;303.63;;;;;;;;;;5095779;28;20468;-70
2021/11/12 02:48:35;;;;;;;786.97;308.27;;;;;;;;;;5095964;28;20035;-70
2021/11/12 02:51:02;;;;;;;801.33;310.03;;;;;;;;;;5094521;28;20114;-70
2021/11/12 02:53:28;;;;;;;799.83;310.87;;;;;;;;;;5095477;28;20032;-69
2021/11/12 02:55:59;;;;;;;710.00;313.63;;;;;;;;;;5095857;28;20419;-70
2021/11/12 02:58:25;;;;;;;529.87;325.50;;;;;;;;;;5096247;28;20430;-70
2021/11/12 03:00:51;;;;;;;496.33;337.27;;;;;;;;;;5095503;28;20021;-70
2021/11/12 03:03:18;;;;;;;516.47;339.00;;;;;;;;;;5095736;28;20020;-70
2021/11/12 03:05:45;;;;;;;707.17;318.97;;;;;;;;;;5095687;28;20046;-70
2021/11/12 03:08:11;;;;;;;743.20;326.07;;;;;;;;;;5095215;28;20047;-70
2021/11/12 03:10:37;;;;;;;762.13;318.30;;;;;;;;;;5095340;28;20075;-70
2021/11/12 03:13:03;;;;;;;573.63;363.40;;;;;;;;;;5095737;28;20548;-69
2021/11/12 03:15:30;;;;;;;537.33;316.40;;;;;;;;;;5093904;28;20383;-69
2021/11/12 03:17:57;;;;;;;557.83;346.93;;;;;;;;;;5095361;28;20047;-69
2021/11/12 03:20:24;;;;;;;540.47;334.30;;;;;;;;;;5095000;28;20031;-70
2021/11/12 03:22:56;;;;;;;542.63;322.17;;;;;;;;;;5093971;28;20032;-71
2021/11/12 03:25:29;;;;;;;506.40;297.40;;;;;;;;;;5095216;28;20103;-70
2021/11/12 03:49:47;;;;;;;786.23;313.20;;;;;;;;;;5095148;28;20442;-69
2021/11/12 04:00:54;;;;;;;769.00;313.53;;;;;;;;;;5094549;28;20035;-70
2021/11/12 04:04:09;;;;;;;776.55;324.95;;;;;;;;;;5092955;28;20020;-69
2021/11/12 05:25:24;;;;;;;709.07;321.97;;;;;;;;;;5093271;28;20025;-70
2021/11/12 05:26:00;;;;;;;723.73;325.37;;;;;;;;;;5093427;28;20054;-72
2021/11/12 05:44:48;;;;;;;501.55;332.25;;;;;;;;;;5093439;28;20503;-70
2021/11/12 05:50:10;;;;;;;504.90;327.30;;;;;;;;;;5092980;28;20035;-71
2021/11/12 05:55:10;;;;;;;481.48;321.02;;;;;;;;;;5093056;28;20016;-70
2021/11/12 05:57:37;;;;;;;485.40;320.23;;;;;;;;;;5093043;28;20036;-70
2021/11/12 06:00:08;;;;;;;492.97;322.97;;;;;;;;;;5093001;28;20411;-71
2021/11/12 06:02:35;;;;;;;493.40;295.30;;;;;;;;;;5092662;28;20115;-71
2021/11/12 06:05:01;;;;;;;498.15;300.92;;;;;;;;;;5093207;28;20160;-71
2021/11/12 06:07:28;;;;;;;488.73;304.23;;;;;;;;;;5092872;28;20491;-71
2021/11/12 06:09:55;;;;;;;546.73;309.37;;;;;;;;;;5092384;28;20468;-71
2021/11/12 06:12:22;;;;;;;833.37;316.37;;;;;;;;;;5095795;28;20035;-70
2021/11/12 06:14:48;;;;;;;809.60;308.83;;;;;;;;;;5105975;28;20099;-70
2021/11/12 06:17:14;;;;;;;813.77;332.17;;;;;;;;;;5110252;28;20535;-70
2021/11/12 06:19:40;;;;;;;806.43;331.33;;;;;;;;;;5115870;28;20099;-70
2021/11/12 06:22:07;;;;;;;791.10;319.17;;;;;;;;;;5102353;28;20070;-70
2021/11/12 06:24:33;;;;;;;793.77;330.17;;;;;;;;;;5095194;28;20022;-70
2021/11/12 06:27:00;;;;;;;784.03;329.87;;;;;;;;;;5095162;28;20027;-70
2021/11/12 06:29:27;;;;;;;783.93;324.80;;;;;;;;;;5093537;28;20039;-69
2021/11/12 06:31:54;;;;;;;773.73;313.87;;;;;;;;;;5094425;28;20032;-69
2021/11/12 06:34:21;;;;;;;788.40;332.23;;;;;;;;;;5094233;28;20024;-69
2021/11/12 06:36:47;;;;;;;766.90;329.03;;;;;;;;;;5094066;28;20479;-70
2021/11/12 06:39:14;;;;;;;758.30;333.80;;;;;;;;;;5095428;28;20548;-70
2021/11/12 06:49:31;;;;;;;638.50;306.03;;;;;;;;;;5093746;28;20061;-70
2021/11/12 06:51:57;;;;;;;662.00;321.73;;;;;;;;;;5094024;28;20381;-71
2021/11/12 06:54:24;;;;;;;686.03;332.67;;;;;;;;;;5095052;28;20394;-71
2021/11/12 06:56:50;;;;;;;682.47;313.13;;;;;;;;;;5094151;28;20028;-70
2021/11/12 06:59:16;;;;;;;679.63;332.90;;;;;;;;;;5094933;28;20051;-71
2021/11/12 07:01:43;;;;;;;709.13;337.93;;;;;;;;;;5095425;28;20024;-70
2021/11/12 07:04:09;;;;;;;672.93;331.07;;;;;;;;;;5095292;28;20028;-72
2021/11/12 07:06:36;;;;;;;580.10;291.83;;;;;;;;;;5089718;28;20038;-71
2021/11/12 07:09:05;;;;;;;535.20;277.40;;;;;;;;;;5090836;28;20024;-71
2021/11/12 07:11:31;;;;;;;514.27;264.37;;;;;;;;;;5091889;28;20463;-71
2021/11/12 07:13:57;;;;;;;496.97;270.70;;;;;;;;;;5094198;28;20020;-70
2021/11/12 07:16:24;;;;;;;458.70;256.00;;;;;;;;;;5094652;28;20384;-72
2021/11/12 07:18:54;;;;;;;474.85;267.92;;;;;;;;;;5092997;28;20035;-69
2021/11/12 07:21:20;;;;;;;441.50;249.02;;;;;;;;;;5092839;28;20468;-71
2021/11/12 07:23:46;;;;;;;445.48;251.57;;;;;;;;;;5094050;28;20479;-71
2021/11/12 07:26:13;;;;;;;397.27;231.07;;;;;;;;;;5093283;28;20067;-70
2021/11/12 07:28:40;;;;;;;411.75;240.07;;;;;;;;;;5093726;28;20369;-71
2021/11/12 07:31:08;;;;;;;473.65;265.50;;;;;;;;;;5093661;28;20097;-71
2021/11/12 07:33:36;;;;;;;390.70;231.25;;;;;;;;;;5092995;28;20429;-71
2021/11/12 07:36:17;;;;;;;369.00;220.93;;;;;;;;;;5092480;28;20465;-71
2021/11/12 07:41:22;;;;;;;222.30;166.93;;;;;;;;;;5094054;28;20103;-70
2021/11/12 07:46:57;;;;;;;220.65;171.48;;;;;;;;;;5092132;28;20039;-71
2021/11/12 07:49:23;;;;;;;330.25;211.63;;;;;;;;;;5098008;28;20056;-71
2021/11/12 07:51:50;;;;;;;369.58;219.00;;;;;;;;;;5090606;28;20036;-71
2021/11/12 07:54:16;;;;;;;289.50;194.13;;;;;;;;;;5093048;28;20417;-70
2021/11/12 07:56:43;;;;;;;305.70;202.45;;;;;;;;;;5092253;28;20028;-69
2021/11/12 07:59:09;;;;;;;283.30;187.05;;;;;;;;;;5094325;28;20078;-71
2021/11/12 08:01:36;;;;;;;193.40;153.60;;;;;;;;;;5093681;28;20380;-71
2021/11/12 08:04:04;;;;;;;351.38;215.00;;;;;;;;;;5091649;28;20020;-70
2021/11/12 08:06:32;;;;;;;315.42;196.00;;;;;;;;;;5092987;28;20027;-70
2021/11/12 08:09:06;;;;;;;337.70;211.85;;;;;;;;;;5090446;28;20062;-70
2021/11/12 08:11:52;;;;;;;332.90;206.35;;;;;;;;;;5093135;28;20044;-69
2021/11/12 08:14:28;;;;;;;320.88;198.23;;;;;;;;;;5092642;28;20498;-70
2021/11/12 08:19:35;;;;;;;329.92;206.95;;;;;;;;;;5093646;28;20024;-70
2021/11/12 08:24:39;;;;;;;468.42;411.05;;;;;;;;;;5093277;28;20074;-70
2021/11/12 08:35:21;;;;;;;23.05;11.77;;;;;;;;;;5093379;28;20020;-70
2021/11/12 08:45:18;;;;;;;18.77;11.57;;;;;;;;;;5089525;28;20503;-71
2021/11/12 08:47:50;;;;;;;21.52;12.05;;;;;;;;;;5089236;28;20016;-71
2021/11/12 08:50:21;;;;;;;18.08;10.88;;;;;;;;;;5089946;28;20020;-72
2021/11/12 08:52:51;;;;;;;41.22;25.50;;;;;;;;;;5088474;28;20031;-69
2021/11/12 08:55:24;;;;;;;28.05;16.63;;;;;;;;;;5087918;28;20027;-71
2021/11/12 08:57:50;;;;;;;;;;;;;;;;;;5112602;28;20028;-70
2021/11/12 09:00:16;;;;;;;24.50;12.00;;;;;;;;;;5112631;28;19964;-72
2021/11/12 09:02:43;;;;;;;56.88;27.05;;;;;;;;;;5112542;28;20166;-69
2021/11/12 09:05:10;;;;;;;84.43;39.35;;;;;;;;;;5110874;28;20023;-71
2021/11/12 09:07:36;;;;;;;48.15;23.02;;;;;;;;;;5112339;28;20020;-70
2021/11/12 09:12:15;;;;;;;42.88;25.20;;;;;;;;;;5110689;27;20800;-71
2021/11/12 09:17:48;;;;;;;29.77;17.38;;;;;;;;;;5109942;27;20389;-70
2021/11/12 09:20:14;;;;;;;60.50;32.53;;;;;;;;;;5108359;28;20688;-71
2021/11/12 09:24:36;;;;;;;28.20;11.68;;;;;;;;;;5107662;27;20385;-71
2021/11/12 09:28:34;;;;;;;38.35;21.08;;;;;;;;;;5108385;27;20392;-70
2021/11/12 09:31:04;;;;;;;32.15;16.20;;;;;;;;;;5108053;28;20051;-71
2021/11/12 09:33:31;;;;;;;54.97;27.88;;;;;;;;;;5107836;28;20058;-71
2021/11/12 09:36:34;;;;;;;28.25;16.42;;;;;;;;;;5088306;27;20843;-71
2021/11/12 09:39:00;;;;;;;31.48;16.35;;;;;;;;;;5087770;28;20028;-71
2021/11/12 09:41:46;;;;;;;44.30;23.27;;;;;;;;;;5066893;28;20461;-71
2021/11/12 09:44:13;;;;;;;25.05;13.02;;;;;;;;;;5064439;28;20035;-71
2021/11/12 09:46:39;;;;;;;20.10;10.38;;;;;;;;;;5067679;28;20048;-71
2021/11/12 09:52:35;;;;;;;30.27;18.20;;;;;;;;;;5151602;27;20130;-71
2021/11/12 09:55:02;;;;;;;29.38;16.83;;;;;;;;;;5122865;27;20034;-71
2021/11/12 09:57:30;;;;;;;33.00;19.10;;;;;;;;;;5125145;27;20031;-71
2021/11/12 09:59:59;;;;;;;18.20;11.40;;;;;;;;;;5128737;27;20031;-71
2021/11/12 10:02:27;;;;;;;22.15;12.35;;;;;;;;;;5129422;27;20042;-74
2021/11/12 10:04:53;;;;;;;23.60;13.35;;;;;;;;;;5129127;27;20053;-72
2021/11/12 10:09:00;;;;;;;15.30;9.43;;;;;;;;;;5076250;27;20482;-71
2021/11/12 10:11:29;;;;;;;14.38;8.93;;;;;;;;;;5077161;28;20368;-70
2021/11/12 10:15:19;;;;;;;14.77;8.90;;;;;;;;;;5078935;27;20429;-71
2021/11/12 10:19:01;;;;;;;18.02;10.80;;;;;;;;;;5083232;27;20129;-72
2021/11/12 10:21:39;;;;;;;14.48;8.70;;;;;;;;;;5088220;28;20415;-71
2021/11/12 10:24:07;;;;;;;18.20;8.93;;;;;;;;;;5081204;28;20092;-71
2021/11/12 10:26:37;;;;;;;13.18;8.52;;;;;;;;;;5083354;28;20031;-72
2021/11/12 10:29:05;;;;;;;24.27;12.55;;;;;;;;;;5097473;28;20039;-73
2021/11/12 10:31:37;;;;;;;14.05;7.93;;;;;;;;;;5091288;28;20048;-72
2021/11/12 10:37:26;;;;;;;13.35;7.53;;;;;;;;;;5110537;27;20404;-72
2021/11/12 10:39:57;;;;;;;15.30;8.15;;;;;;;;;;5108937;28;20039;-73
2021/11/12 10:42:25;;;;;;;14.38;7.80;;;;;;;;;;5109209;28;20487;-71
2021/11/12 10:44:53;;;;;;;16.75;7.97;;;;;;;;;;5108130;28;20032;-70
2021/11/12 10:49:26;;;;;;;11.88;7.00;;;;;;;;;;5110132;27;20976;-72
2021/11/12 10:55:25;;;;;;;21.77;12.07;;;;;;;;;;5110827;27;20392;-72
2021/11/12 10:57:56;;;;;;;24.27;15.07;;;;;;;;;;5110276;28;20024;-72
2021/11/12 11:00:28;;;;;;;37.33;19.13;;;;;;;;;;5109668;28;20027;-72
2021/11/12 11:08:20;;;;;;;13.40;7.63;;;;;;;;;;5110800;27;20389;-72
2021/11/12 11:10:52;;;;;;;14.75;7.30;;;;;;;;;;5110862;28;20031;-71
2021/11/12 11:13:23;;;;;;;16.55;9.43;;;;;;;;;;5109408;28;20085;-71
2021/11/12 11:15:50;;;;;;;9.57;5.45;;;;;;;;;;5108061;28;20476;-71
2021/11/12 11:19:01;;;;;;;14.88;6.85;;;;;;;;;;5069743;28;20922;-70
2021/11/12 11:21:28;;;;;;;31.30;14.68;;;;;;;;;;5069104;28;20025;-72
2021/11/12 11:24:12;;;;;;;11.32;6.30;;;;;;;;;;5111145;27;20510;-70
2021/11/12 11:27:30;;;;;;;13.05;7.18;;;;;;;;;;5110430;27;20957;-71
2021/11/12 11:29:56;;;;;;;20.42;10.80;;;;;;;;;;5109649;28;20024;-71
2021/11/12 11:34:35;;;;;;;13.77;7.00;;;;;;;;;;5110350;27;20392;-72
2021/11/12 11:39:21;;;;;;;12.15;6.82;;;;;;;;;;5110144;27;20462;-71
2021/11/12 11:41:50;;;;;;;10.95;4.78;;;;;;;;;;5109442;28;20513;-71
2021/11/12 11:44:16;;;;;;;24.90;12.68;;;;;;;;;;5109217;28;20028;-71
2021/11/12 11:46:45;;;;;;;11.65;6.78;;;;;;;;;;5110464;28;20030;-72
2021/11/12 11:49:26;;;;;;;9.95;4.97;;;;;;;;;;5111195;27;20388;-71
2021/11/12 11:51:54;;;;;;;9.75;5.60;;;;;;;;;;5109801;28;20024;-70
2021/11/12 11:54:21;;;;;;;11.05;4.97;;;;;;;;;;5109427;28;20028;-71
2021/11/12 11:56:48;;;;;;;6.80;3.47;;;;;;;;;;5110867;28;20016;-71
2021/11/12 11:59:17;;;;;;;8.40;3.50;;;;;;;;;;5108856;28;20020;-71
2021/11/12 12:01:53;;;;;;;35.08;16.02;;;;;;;;;;5110147;28;20024;-71
2021/11/12 12:04:19;;;;;;;11.80;5.00;;;;;;;;;;5110445;28;20412;-70
2021/11/12 12:07:55;;;;;;;25.38;11.43;;;;;;;;;;5088544;27;20966;-71
2021/11/12 12:10:24;;;;;;;8.60;3.80;;;;;;;;;;5088567;28;20427;-70
2021/11/12 12:12:51;;;;;;;25.42;11.38;;;;;;;;;;5089641;28;20364;-70
2021/11/12 12:15:23;;;;;;;10.05;4.60;;;;;;;;;;5089435;28;20358;-71
2021/11/12 12:18:09;;;;;;;7.30;3.07;;;;;;;;;;5089732;28;20085;-73
2021/11/12 12:36:32;;;;;;;8.82;3.88;;;;;;;;;;5084807;28;20013;-72
2021/11/12 13:21:54;;;;;;;8.90;4.32;;;;;;;;;;5111413;28;20036;-70
2021/11/12 13:26:37;;;;;;;7.28;3.78;;;;;;;;;;5068181;28;20402;-68
2021/11/12 13:29:06;;;;;;;11.40;4.63;;;;;;;;;;5070577;28;20094;-69
2021/11/12 13:31:32;;;;;;;7.38;3.78;;;;;;;;;;5069972;28;20029;-68
2021/11/12 13:34:02;;;;;;;9.13;4.80;;;;;;;;;;5068534;28;20013;-70
2021/11/12 13:36:29;;;;;;;10.73;4.80;;;;;;;;;;5069635;28;20029;-70
2021/11/12 13:39:03;;;;;;;10.45;5.25;;;;;;;;;;5069811;28;20021;-74
2021/11/12 13:42:09;;;;;;;8.60;5.05;;;;;;;;;;5109565;27;20388;-75
2021/11/12 13:44:38;;;;;;;8.32;3.95;;;;;;;;;;5108879;28;20035;-75
2021/11/12 13:50:05;;;;;;;12.48;6.60;;;;;;;;;;5110763;27;20929;-73
2021/11/12 13:52:47;;;;;;;11.75;5.93;;;;;;;;;;5108347;27;20415;-71
2021/11/12 13:55:33;;;;;;;10.20;5.43;;;;;;;;;;5110476;27;20109;-73
2021/11/12 14:02:02;;;;;;;11.50;5.75;;;;;;;;;;5109082;27;20888;-74
2021/11/12 14:04:49;;;;;;;9.60;6.22;;;;;;;;;;5109893;27;20980;-74
2021/11/12 14:08:18;;;;;;;13.38;6.30;;;;;;;;;;5129155;27;20119;-73
2021/11/12 14:10:46;;;;;;;9.80;5.40;;;;;;;;;;5109493;28;20494;-74
2021/11/12 14:13:15;;;;;;;14.65;7.93;;;;;;;;;;5110152;28;20028;-74
2021/11/12 14:16:52;;;;;;;14.98;9.15;;;;;;;;;;5108406;27;20997;-74
2021/11/12 14:22:10;;;;;;;34.35;18.40;;;;;;;;;;5107018;28;20012;-74
2021/11/12 14:24:43;;;;;;;31.73;17.55;;;;;;;;;;5105439;28;20413;-74
2021/11/12 14:29:38;;;;;;;23.52;13.98;;;;;;;;;;5092391;27;20393;-72
2021/11/12 14:32:39;;;;;;;71.78;47.63;;;;;;;;;;5106670;28;20032;-74
2021/11/12 14:46:01;;;;;;;42.30;28.45;;;;;;;;;;5109668;28;20509;-73
2021/11/12 14:48:34;;;;;;;44.60;27.83;;;;;;;;;;5101466;28;20096;-73
2021/11/12 14:58:02;;;;;;;40.95;23.10;;;;;;;;;;5105092;27;20389;-72
2021/11/12 15:03:51;;;;;;;36.60;22.55;;;;;;;;;;5110653;27;20461;-74
2021/11/12 15:08:42;;;;;;;31.35;20.85;;;;;;;;;;5109811;27;20462;-74
2021/11/12 15:11:49;;;;;;;36.00;21.10;;;;;;;;;;5111131;27;20408;-73
2021/11/12 15:14:25;;;;;;;61.13;38.38;;;;;;;;;;5111342;28;20027;-73
2021/11/12 15:16:51;;;;;;;53.35;36.05;;;;;;;;;;5111227;28;20062;-74
2021/11/12 15:19:19;;;;;;;45.85;30.33;;;;;;;;;;5110812;28;20023;-73
2021/11/12 15:25:28;;;;;;;40.83;24.58;;;;;;;;;;5111149;27;20489;-73
2021/11/12 15:28:29;;;;;;;41.53;23.75;;;;;;;;;;5109937;28;20490;-73
2021/11/12 15:30:49;;;;;;;32.03;19.75;;;;;;;;;;5110519;28;20026;-72
2021/11/12 15:34:23;;;;;;;38.15;23.42;;;;;;;;;;5111222;27;20393;-73
2021/11/12 15:37:41;;;;;;;33.83;17.40;;;;;;;;;;5111375;27;20450;-72
2021/11/12 15:44:00;;;;;;;64.80;37.13;;;;;;;;;;5111179;27;20458;-74
2021/11/12 15:46:30;;;;;;;73.10;39.97;;;;;;;;;;5110813;28;20081;-74
2021/11/12 15:48:57;;;;;;;78.55;44.83;;;;;;;;;;5111653;28;20008;-73
2021/11/12 15:52:05;;;;;;;74.97;42.97;;;;;;;;;;5111290;27;20388;-73
2021/11/12 16:08:22;;;;;;;180.05;107.55;;;;;;;;;;5110709;28;20020;-73
2021/11/12 16:13:27;;;;;;;139.98;90.20;;;;;;;;;;5110791;28;20028;-72
2021/11/12 16:26:09;;;;;;;121.20;73.70;;;;;;;;;;5110505;28;20110;-72
2021/11/12 16:28:53;;;;;;;103.60;65.18;;;;;;;;;;5110225;28;20019;-73
2021/11/12 16:31:20;;;;;;;90.05;55.60;;;;;;;;;;5110605;28;20027;-72
2021/11/12 16:33:46;;;;;;;77.82;46.42;;;;;;;;;;5110329;28;20027;-72
2021/11/12 16:36:12;;;;;;;58.35;36.17;;;;;;;;;;5110119;28;20024;-73
2021/11/12 16:38:39;;;;;;;44.53;28.75;;;;;;;;;;5108968;28;20034;-72
2021/11/12 16:41:22;;;;;;;42.65;27.08;;;;;;;;;;5110242;28;20051;-72
2021/11/12 16:52:32;;;;;;;66.18;39.97;;;;;;;;;;5110032;28;20027;-71
2021/11/12 16:57:23;;;;;;;50.25;33.58;;;;;;;;;;5109540;28;20439;-72
2021/11/12 17:00:00;;;;;;;48.67;32.38;;;;;;;;;;5109770;28;20552;-72
2021/11/12 17:02:35;;;;;;;48.83;30.60;;;;;;;;;;5109967;28;20020;-73
2021/11/12 17:05:07;;;;;;;61.05;36.17;;;;;;;;;;5109593;28;20039;-72
2021/11/12 17:07:39;;;;;;;72.28;40.30;;;;;;;;;;5110110;28;20020;-72
2021/11/12 17:18:26;;;;;;;56.35;32.15;;;;;;;;;;5058178;28;20040;-73
2021/11/12 17:45:48;;;;;;;46.42;26.08;;;;;;;;;;5095607;28;20489;-71
2021/11/12 17:48:12;;;;;;;43.83;25.63;;;;;;;;;;5095374;28;20035;-72
2021/11/12 18:12:38;;;;;;;104.55;61.63;;;;;;;;;;5095076;28;20111;-73
2021/11/12 18:15:42;;;;;;;129.07;79.00;;;;;;;;;;5094508;28;20032;-71
2021/11/12 18:23:56;;;;;;;61.15;37.22;;;;;;;;;;5094118;28;20035;-72
2021/11/12 21:48:11;;;;;;;25.55;16.55;;;;;;;;;;5095427;28;20106;-73
2021/11/12 21:50:37;;;;;;;25.67;16.27;;;;;;;;;;5095632;28;20360;-73
2021/11/12 21:53:04;;;;;;;29.80;17.15;;;;;;;;;;5093747;28;20123;-73
2021/11/12 21:55:32;;;;;;;30.67;17.95;;;;;;;;;;5095246;28;20016;-72
2021/11/12 21:57:58;;;;;;;32.60;17.35;;;;;;;;;;5093787;28;20052;-72
2021/11/12 22:00:25;;;;;;;18.52;10.98;;;;;;;;;;5093428;28;20062;-73
2021/11/12 22:02:51;;;;;;;15.80;9.73;;;;;;;;;;5095369;28;20031;-73
2021/11/12 22:05:18;;;;;;;22.58;11.80;;;;;;;;;;5095218;28;20411;-72
2021/11/12 22:07:44;;;;;;;18.90;11.00;;;;;;;;;;5094777;28;20031;-75
2021/11/12 22:10:10;;;;;;;19.52;11.52;;;;;;;;;;5095174;28;20027;-71
2021/11/12 22:12:36;;;;;;;17.25;10.25;;;;;;;;;;5094722;28;20379;-72
2021/11/12 22:15:03;;;;;;;23.77;13.23;;;;;;;;;;5095084;28;20027;-72
2021/11/12 22:17:29;;;;;;;24.52;12.70;;;;;;;;;;5094980;28;20475;-72
2021/11/12 22:19:56;;;;;;;31.08;15.48;;;;;;;;;;5094560;28;20498;-72
2021/11/12 22:22:22;;;;;;;29.77;14.27;;;;;;;;;;5094894;28;20023;-73
2021/11/12 22:24:48;;;;;;;27.13;17.08;;;;;;;;;;5094707;28;20020;-73
2021/11/12 22:27:15;;;;;;;34.08;18.85;;;;;;;;;;5094242;28;20024;-72
2021/11/12 22:29:41;;;;;;;25.83;17.30;;;;;;;;;;5095140;28;20028;-72
2021/11/12 22:32:08;;;;;;;34.15;17.75;;;;;;;;;;5094650;28;20023;-72
2021/11/12 22:34:34;;;;;;;44.15;25.02;;;;;;;;;;5092966;28;20028;-72
2021/11/12 22:37:00;;;;;;;47.55;25.70;;;;;;;;;;5094515;28;20031;-73
2021/11/12 22:39:26;;;;;;;41.25;22.25;;;;;;;;;;5094580;28;20032;-72
2021/11/12 22:41:53;;;;;;;44.03;22.00;;;;;;;;;;5094305;28;20016;-72
2021/11/12 22:44:20;;;;;;;33.85;17.10;;;;;;;;;;5094510;28;20024;-72
2021/11/12 22:46:46;;;;;;;26.77;14.18;;;;;;;;;;5094432;28;20020;-73
2021/11/12 22:49:13;;;;;;;25.98;14.27;;;;;;;;;;5094106;28;20043;-72
2021/11/12 22:51:40;;;;;;;29.83;15.07;;;;;;;;;;5094878;28;20150;-72
2021/11/12 22:54:06;;;;;;;29.67;15.40;;;;;;;;;;5094384;28;20361;-72
2021/11/12 22:56:32;;;;;;;29.05;14.05;;;;;;;;;;5093589;28;20031;-72
2021/11/12 22:58:59;;;;;;;25.20;15.25;;;;;;;;;;5094005;28;20044;-73
2021/11/12 23:01:27;;;;;;;33.47;17.20;;;;;;;;;;5094266;28;20073;-73
2021/11/12 23:03:53;;;;;;;34.05;16.48;;;;;;;;;;5093891;28;20020;-73
2021/11/12 23:06:19;;;;;;;23.90;13.48;;;;;;;;;;5094054;28;20035;-73
2021/11/12 23:08:45;;;;;;;18.40;10.50;;;;;;;;;;5093749;28;20468;-73
2021/11/12 23:11:13;;;;;;;20.20;10.60;;;;;;;;;;5092380;28;20024;-73
2021/11/12 23:13:40;;;;;;;16.38;10.35;;;;;;;;;;5094135;28;20027;-73
2021/11/12 23:16:06;;;;;;;20.42;9.77;;;;;;;;;;5093588;28;20024;-73
2021/11/12 23:18:32;;;;;;;19.67;9.35;;;;;;;;;;5093801;28;20024;-72
2021/11/12 23:20:58;;;;;;;18.27;9.35;;;;;;;;;;5093718;28;20031;-72
2021/11/12 23:23:25;;;;;;;17.77;9.45;;;;;;;;;;5093373;28;20031;-73
2021/11/12 23:25:52;;;;;;;17.88;9.75;;;;;;;;;;5093996;28;20028;-73
2021/11/12 23:28:18;;;;;;;20.63;10.20;;;;;;;;;;5094167;28;20024;-72
2021/11/12 23:30:44;;;;;;;15.48;8.95;;;;;;;;;;5093550;28;20095;-72
2021/11/12 23:33:10;;;;;;;14.88;8.98;;;;;;;;;;5093596;28;20387;-73
2021/11/12 23:35:37;;;;;;;16.92;9.40;;;;;;;;;;5093568;28;20023;-73
2021/11/12 23:38:03;;;;;;;15.27;8.90;;;;;;;;;;5093150;28;20020;-73
2021/11/12 23:40:30;;;;;;;21.48;9.68;;;;;;;;;;5093447;28;20097;-73
2021/11/12 23:42:56;;;;;;;16.30;9.57;;;;;;;;;;5093783;28;20095;-73
2021/11/12 23:45:22;;;;;;;25.55;10.82;;;;;;;;;;5092979;28;20100;-73
2021/11/12 23:47:49;;;;;;;14.65;8.73;;;;;;;;;;5093348;28;20102;-73
2021/11/12 23:50:16;;;;;;;17.85;9.40;;;;;;;;;;5093283;28;20058;-73
2021/11/12 23:52:42;;;;;;;13.63;7.97;;;;;;;;;;5092927;28;20032;-72
2021/11/12 23:55:09;;;;;;;13.18;7.75;;;;;;;;;;5093525;28;20456;-73
2021/11/12 23:57:35;;;;;;;13.48;8.10;;;;;;;;;;5093319;28;20028;-73
